Aviation Digital Data Service (ADDS)

Output produced by TAFs form (1854 UTC 13 December 2017)
found at http://aviationweather.gov/adds/tafs/
 
KRIL 131742Z 1318/1418 00000KT P6SM OVC110 
     FM132200 31004KT P6SM BKN100 BKN150 
     FM140500 32004KT P6SM VCSH BKN045 BKN080 
     FM140800 30005KT P6SM SCT030 BKN045